Arethusa — 9HJR9 — position and weather

sailwx.info

Track history (hours):
 
Tides and Currents Weather Stations Pressure Air Temp Water Temp Dewpoint Dewpoint Depression Visibility Wind Speed Wind Dir Waves Ship Positions

Arethusa

Last reported at 2014-Sep-15 08:22 UTC. Time now 2014-Sep-15 09:27 UTC.
Position N 43°42' E 007°17'.

Length 60 m; draft 3 m.

Type: Passenger vessel. MMSI: 249069000.

Date/timePositionNaut miles runAvg speedWind from/ knotsBaromVisibWave heightAir tempDewpointWater temp
2014-Sep-15 08:22N 43°42' E 007°17'0 0.0
2014-Sep-15 07:16N 43°42' E 007°17'0 0.0
2014-Sep-15 06:28N 43°42' E 007°17'0 0.0
2014-Sep-15 05:28N 43°42' E 007°17'0 0.0
2014-Sep-15 04:28N 43°42' E 007°17'0 0.0
2014-Sep-15 03:28N 43°42' E 007°17'0 0.0
2014-Sep-15 02:28N 43°42' E 007°17'0 0.0
2014-Sep-15 01:22N 43°42' E 007°17'0 0.0
2014-Sep-15 00:28N 43°42' E 007°17'0 0.0
2014-Sep-14 23:22N 43°42' E 007°17'0 0.0
2014-Sep-14 22:28N 43°42' E 007°17'0 0.0
2014-Sep-14 21:28N 43°42' E 007°17'0 0.0
2014-Sep-14 20:22N 43°42' E 007°17'0 0.0
2014-Sep-14 19:28N 43°42' E 007°17'0 0.0
2014-Sep-14 18:28N 43°42' E 007°17'0 0.0
2014-Sep-14 17:28N 43°42' E 007°17'0 0.0
2014-Sep-14 16:22N 43°42' E 007°17'0 0.0
2014-Sep-14 15:28N 43°42' E 007°17'0 0.0
2014-Sep-14 14:04N 43°42' E 007°17'0 0.0
2014-Sep-14 13:28N 43°42' E 007°17'0 0.0
2014-Sep-14 11:28N 43°42' E 007°17'0 0.0
2014-Sep-14 10:28N 43°42' E 007°17'0 0.0
2014-Sep-14 09:22N 43°42' E 007°17'0 0.0
2014-Sep-14 08:28N 43°42' E 007°17'0 0.0
2014-Sep-14 07:16N 43°42' E 007°17'0 0.0
2014-Sep-14 06:22N 43°42' E 007°17'0 0.0
2014-Sep-14 05:28N 43°42' E 007°17'0 0.0
2014-Sep-14 04:28N 43°42' E 007°17'0 0.0
2014-Sep-14 03:22N 43°42' E 007°17'0 0.0
2014-Sep-14 02:28N 43°42' E 007°17'0 0.0
2014-Sep-14 01:28N 43°42' E 007°17'0 0.0
2014-Sep-13 21:28N 43°42' E 007°17'0 0.0
2014-Sep-13 20:28N 43°42' E 007°17'0 0.0
2014-Sep-13 19:28N 43°42' E 007°17'0 0.0
2014-Sep-13 18:28N 43°42' E 007°17'0 0.0
2014-Sep-13 17:28N 43°42' E 007°17'0 0.0
2014-Sep-13 16:28N 43°42' E 007°17'0 0.0
2014-Sep-13 15:28N 43°42' E 007°17'0 0.0
2014-Sep-13 14:28N 43°42' E 007°17'0 0.0
2014-Sep-13 13:16N 43°42' E 007°17'0 0.0
2014-Sep-13 12:28N 43°42' E 007°17'0 0.0
2014-Sep-13 11:28N 43°42' E 007°17'0 0.0
2014-Sep-13 10:33N 43°42' E 007°17'0 0.0
2014-Sep-13 09:33N 43°42' E 007°17'0 0.0
2014-Sep-13 08:33N 43°42' E 007°17'0 0.0
2014-Sep-13 07:33N 43°42' E 007°17'0 0.0
2014-Sep-13 06:33N 43°42' E 007°17'0 0.0
2014-Sep-13 05:33N 43°42' E 007°17'1 1.3
2014-Sep-13 04:33N 43°40' E 007°17'5 5.1
2014-Sep-13 03:32N 43°40' E 007°24'5010.0
2014-Sep-12 22:33N 43°58' E 008°28'11 9.6
2014-Sep-12 21:22N 44°04' E 008°42'10 9.4
2014-Sep-12 20:17N 44°09' E 008°54'7 9.4
2014-Sep-12 19:33N 44°12' E 009°03'10 9.5
2014-Sep-12 18:33N 44°17' E 009°14'5 0.3
2014-Sep-12 04:25N 44°15' E 009°21'7 8.0
2014-Sep-12 03:33N 44°11' E 009°28'9 8.9
2014-Sep-12 02:34N 44°05' E 009°37'10 9.7
2014-Sep-12 01:34N 44°00' E 009°49'3 3.1
2014-Sep-12 00:33N 44°03' E 009°51'0 0.0
2014-Sep-11 23:33N 44°03' E 009°51'0 0.0
2014-Sep-11 22:33N 44°03' E 009°51'0 0.0
2014-Sep-11 21:33N 44°03' E 009°51'0 0.0
2014-Sep-11 20:33N 44°03' E 009°51'0 0.0
2014-Sep-11 19:33N 44°03' E 009°51'0 0.0
2014-Sep-11 18:33N 44°03' E 009°51'0 0.0
2014-Sep-11 17:33N 44°03' E 009°51'0 0.0
2014-Sep-11 16:33N 44°03' E 009°51'0 0.0
2014-Sep-11 15:33N 44°03' E 009°51'0 0.0
2014-Sep-11 14:33N 44°03' E 009°51'0 0.0
2014-Sep-11 13:33N 44°03' E 009°51'0 0.0
2014-Sep-11 12:33N 44°03' E 009°51'0 0.0
2014-Sep-11 11:33N 44°03' E 009°51'0 0.0
2014-Sep-11 10:33N 44°03' E 009°51'0 0.0
2014-Sep-11 09:33N 44°03' E 009°51'0 0.0
2014-Sep-11 08:33N 44°03' E 009°51'0 0.0
2014-Sep-11 07:33N 44°03' E 009°51'0 0.0
2014-Sep-11 06:33N 44°03' E 009°51'0 0.0
2014-Sep-11 05:33N 44°03' E 009°51'6 6.5
2014-Sep-11 04:33N 44°01' E 009°59'3 2.6
2014-Sep-11 03:33N 44°02' E 010°02'0 0.0
2014-Sep-11 02:33N 44°02' E 010°02'0 0.0
2014-Sep-11 01:27N 44°02' E 010°02'0 0.0
2014-Sep-11 00:33N 44°02' E 010°02'0 0.0
2014-Sep-10 23:27N 44°02' E 010°02'0 0.0
2014-Sep-10 22:33N 44°02' E 010°02'0 0.0
2014-Sep-10 21:33N 44°02' E 010°02'0 0.0
2014-Sep-10 20:30N 44°02' E 010°02'0 0.0
2014-Sep-10 19:33N 44°02' E 010°02'0 0.0
2014-Sep-10 18:30N 44°02' E 010°02'0 0.0
2014-Sep-10 17:30N 44°02' E 010°02'0 0.0
2014-Sep-10 16:33N 44°02' E 010°02'0 0.0
2014-Sep-10 15:33N 44°02' E 010°02'0 0.0
2014-Sep-10 14:33N 44°02' E 010°02'0 0.0
2014-Sep-10 11:07N 44°02' E 010°02'0 0.0
2014-Sep-10 10:33N 44°02' E 010°02'0 0.0
2014-Sep-10 07:33N 44°02' E 010°02'23 3.8
2014-Sep-10 01:32N 43°40' E 009°52'1010.2
2014-Sep-10 00:33N 43°31' E 009°47'10 9.8
2014-Sep-09 23:32N 43°21' E 009°44'  
2014-Sep-07 17:29N 43°16' E 010°15'1010.5
2014-Sep-07 16:33N 43°26' E 010°13'8 8.0
2014-Sep-07 15:33N 43°33' E 010°18'0 0.1
2014-Sep-07 14:32N 43°33' E 010°18'0 0.0
2014-Sep-07 13:32N 43°33' E 010°18'0 0.0
2014-Sep-07 12:32N 43°33' E 010°18'0 0.0
2014-Sep-07 11:32N 43°33' E 010°18'0 0.0
2014-Sep-07 10:33N 43°33' E 010°18'0 0.0
2014-Sep-07 09:34N 43°33' E 010°18'0 0.0
2014-Sep-07 08:34N 43°33' E 010°18'0 0.0
2014-Sep-07 07:33N 43°33' E 010°18'0 0.0
2014-Sep-07 06:33N 43°33' E 010°18'0 0.0
2014-Sep-07 05:33N 43°33' E 010°18'0 0.0
2014-Sep-07 04:33N 43°33' E 010°18'0 0.0
2014-Sep-07 03:33N 43°33' E 010°18'0 0.0
2014-Sep-07 02:33N 43°33' E 010°18'0 0.0
2014-Sep-07 01:32N 43°33' E 010°18'0 0.0
2014-Sep-07 00:34N 43°33' E 010°18'0 0.0
2014-Sep-06 23:33N 43°33' E 010°18'0 0.0
2014-Sep-06 22:33N 43°33' E 010°18'3 3.5
2014-Sep-06 21:34N 43°31' E 010°15'9 9.1
2014-Sep-06 20:33N 43°21' E 010°15'9 9.1
2014-Sep-06 19:34N 43°12' E 010°17'9 8.6
2014-Sep-06 18:33N 43°04' E 010°19'14 6.8
2014-Sep-06 16:34N 42°50' E 010°21'2 1.2
2014-Sep-06 15:09N 42°49' E 010°20'1 0.1
2014-Sep-06 04:17N 42°49' E 010°20'  
Track history (hours):
 
Tides and Currents Weather Stations Pressure Air Temp Water Temp Dewpoint Dewpoint Depression Visibility Wind Speed Wind Dir Waves Ship Positions

Arethusa

Last reported at 2014-Sep-15 08:22 UTC. Time now 2014-Sep-15 09:27 UTC.
Position N 43°42' E 007°17'.

Length 60 m; draft 3 m.

Type: Passenger vessel. MMSI: 249069000.

Date/timePositionNaut miles runAvg speedWind from/ knotsBaromVisibWave heightAir tempDewpointWater temp
2014-Sep-15 08:22N 43°42' E 007°17'0 0.0
2014-Sep-15 07:16N 43°42' E 007°17'0 0.0
2014-Sep-15 06:28N 43°42' E 007°17'0 0.0
2014-Sep-15 05:28N 43°42' E 007°17'0 0.0
2014-Sep-15 04:28N 43°42' E 007°17'0 0.0
2014-Sep-15 03:28N 43°42' E 007°17'0 0.0
2014-Sep-15 02:28N 43°42' E 007°17'0 0.0
2014-Sep-15 01:22N 43°42' E 007°17'0 0.0
2014-Sep-15 00:28N 43°42' E 007°17'0 0.0
2014-Sep-14 23:22N 43°42' E 007°17'0 0.0
2014-Sep-14 22:28N 43°42' E 007°17'0 0.0
2014-Sep-14 21:28N 43°42' E 007°17'0 0.0
2014-Sep-14 20:22N 43°42' E 007°17'0 0.0
2014-Sep-14 19:28N 43°42' E 007°17'0 0.0
2014-Sep-14 18:28N 43°42' E 007°17'0 0.0
2014-Sep-14 17:28N 43°42' E 007°17'0 0.0
2014-Sep-14 16:22N 43°42' E 007°17'0 0.0
2014-Sep-14 15:28N 43°42' E 007°17'0 0.0
2014-Sep-14 14:04N 43°42' E 007°17'0 0.0
2014-Sep-14 13:28N 43°42' E 007°17'0 0.0
2014-Sep-14 11:28N 43°42' E 007°17'0 0.0
2014-Sep-14 10:28N 43°42' E 007°17'0 0.0
2014-Sep-14 09:22N 43°42' E 007°17'0 0.0
2014-Sep-14 08:28N 43°42' E 007°17'0 0.0
2014-Sep-14 07:16N 43°42' E 007°17'0 0.0
2014-Sep-14 06:22N 43°42' E 007°17'0 0.0
2014-Sep-14 05:28N 43°42' E 007°17'0 0.0
2014-Sep-14 04:28N 43°42' E 007°17'0 0.0
2014-Sep-14 03:22N 43°42' E 007°17'0 0.0
2014-Sep-14 02:28N 43°42' E 007°17'0 0.0
2014-Sep-14 01:28N 43°42' E 007°17'0 0.0
2014-Sep-13 21:28N 43°42' E 007°17'0 0.0
2014-Sep-13 20:28N 43°42' E 007°17'0 0.0
2014-Sep-13 19:28N 43°42' E 007°17'0 0.0
2014-Sep-13 18:28N 43°42' E 007°17'0 0.0
2014-Sep-13 17:28N 43°42' E 007°17'0 0.0
2014-Sep-13 16:28N 43°42' E 007°17'0 0.0
2014-Sep-13 15:28N 43°42' E 007°17'0 0.0
2014-Sep-13 14:28N 43°42' E 007°17'0 0.0
2014-Sep-13 13:16N 43°42' E 007°17'0 0.0
2014-Sep-13 12:28N 43°42' E 007°17'0 0.0
2014-Sep-13 11:28N 43°42' E 007°17'0 0.0
2014-Sep-13 10:33N 43°42' E 007°17'0 0.0
2014-Sep-13 09:33N 43°42' E 007°17'0 0.0
2014-Sep-13 08:33N 43°42' E 007°17'0 0.0
2014-Sep-13 07:33N 43°42' E 007°17'0 0.0
2014-Sep-13 06:33N 43°42' E 007°17'0 0.0
2014-Sep-13 05:33N 43°42' E 007°17'1 1.3
2014-Sep-13 04:33N 43°40' E 007°17'5 5.1
2014-Sep-13 03:32N 43°40' E 007°24'5010.0
2014-Sep-12 22:33N 43°58' E 008°28'11 9.6
2014-Sep-12 21:22N 44°04' E 008°42'10 9.4
2014-Sep-12 20:17N 44°09' E 008°54'7 9.4
2014-Sep-12 19:33N 44°12' E 009°03'10 9.5
2014-Sep-12 18:33N 44°17' E 009°14'5 0.3
2014-Sep-12 04:25N 44°15' E 009°21'7 8.0
2014-Sep-12 03:33N 44°11' E 009°28'9 8.9
2014-Sep-12 02:34N 44°05' E 009°37'10 9.7
2014-Sep-12 01:34N 44°00' E 009°49'3 3.1
2014-Sep-12 00:33N 44°03' E 009°51'0 0.0
2014-Sep-11 23:33N 44°03' E 009°51'0 0.0
2014-Sep-11 22:33N 44°03' E 009°51'0 0.0
2014-Sep-11 21:33N 44°03' E 009°51'0 0.0
2014-Sep-11 20:33N 44°03' E 009°51'0 0.0
2014-Sep-11 19:33N 44°03' E 009°51'0 0.0
2014-Sep-11 18:33N 44°03' E 009°51'0 0.0
2014-Sep-11 17:33N 44°03' E 009°51'0 0.0
2014-Sep-11 16:33N 44°03' E 009°51'0 0.0
2014-Sep-11 15:33N 44°03' E 009°51'0 0.0
2014-Sep-11 14:33N 44°03' E 009°51'0 0.0
2014-Sep-11 13:33N 44°03' E 009°51'0 0.0
2014-Sep-11 12:33N 44°03' E 009°51'0 0.0
2014-Sep-11 11:33N 44°03' E 009°51'0 0.0
2014-Sep-11 10:33N 44°03' E 009°51'0 0.0
2014-Sep-11 09:33N 44°03' E 009°51'0 0.0
2014-Sep-11 08:33N 44°03' E 009°51'0 0.0
2014-Sep-11 07:33N 44°03' E 009°51'0 0.0
2014-Sep-11 06:33N 44°03' E 009°51'0 0.0
2014-Sep-11 05:33N 44°03' E 009°51'6 6.5
2014-Sep-11 04:33N 44°01' E 009°59'3 2.6
2014-Sep-11 03:33N 44°02' E 010°02'0 0.0
2014-Sep-11 02:33N 44°02' E 010°02'0 0.0
2014-Sep-11 01:27N 44°02' E 010°02'0 0.0
2014-Sep-11 00:33N 44°02' E 010°02'0 0.0
2014-Sep-10 23:27N 44°02' E 010°02'0 0.0
2014-Sep-10 22:33N 44°02' E 010°02'0 0.0
2014-Sep-10 21:33N 44°02' E 010°02'0 0.0
2014-Sep-10 20:30N 44°02' E 010°02'0 0.0
2014-Sep-10 19:33N 44°02' E 010°02'0 0.0
2014-Sep-10 18:30N 44°02' E 010°02'0 0.0
2014-Sep-10 17:30N 44°02' E 010°02'0 0.0
2014-Sep-10 16:33N 44°02' E 010°02'0 0.0
2014-Sep-10 15:33N 44°02' E 010°02'0 0.0
2014-Sep-10 14:33N 44°02' E 010°02'0 0.0
2014-Sep-10 11:07N 44°02' E 010°02'0 0.0
2014-Sep-10 10:33N 44°02' E 010°02'0 0.0
2014-Sep-10 07:33N 44°02' E 010°02'23 3.8
2014-Sep-10 01:32N 43°40' E 009°52'1010.2
2014-Sep-10 00:33N 43°31' E 009°47'10 9.8
2014-Sep-09 23:32N 43°21' E 009°44'  
2014-Sep-07 17:29N 43°16' E 010°15'1010.5
2014-Sep-07 16:33N 43°26' E 010°13'8 8.0
2014-Sep-07 15:33N 43°33' E 010°18'0 0.1
2014-Sep-07 14:32N 43°33' E 010°18'0 0.0
2014-Sep-07 13:32N 43°33' E 010°18'0 0.0
2014-Sep-07 12:32N 43°33' E 010°18'0 0.0
2014-Sep-07 11:32N 43°33' E 010°18'0 0.0
2014-Sep-07 10:33N 43°33' E 010°18'0 0.0
2014-Sep-07 09:34N 43°33' E 010°18'0 0.0
2014-Sep-07 08:34N 43°33' E 010°18'0 0.0
2014-Sep-07 07:33N 43°33' E 010°18'0 0.0
2014-Sep-07 06:33N 43°33' E 010°18'0 0.0
2014-Sep-07 05:33N 43°33' E 010°18'0 0.0
2014-Sep-07 04:33N 43°33' E 010°18'0 0.0
2014-Sep-07 03:33N 43°33' E 010°18'0 0.0
2014-Sep-07 02:33N 43°33' E 010°18'0 0.0
2014-Sep-07 01:32N 43°33' E 010°18'0 0.0
2014-Sep-07 00:34N 43°33' E 010°18'0 0.0
2014-Sep-06 23:33N 43°33' E 010°18'0 0.0
2014-Sep-06 22:33N 43°33' E 010°18'3 3.5
2014-Sep-06 21:34N 43°31' E 010°15'9 9.1
2014-Sep-06 20:33N 43°21' E 010°15'9 9.1
2014-Sep-06 19:34N 43°12' E 010°17'9 8.6
2014-Sep-06 18:33N 43°04' E 010°19'14 6.8
2014-Sep-06 16:34N 42°50' E 010°21'2 1.2
2014-Sep-06 15:09N 42°49' E 010°20'1 0.1
2014-Sep-06 04:17N 42°49' E 010°20'  

Dump ship's entire track history